Time,TemperatureF,DewpointF,PressureIn,WindDirection,WindDirectionDegrees,WindSpeedMPH,WindSpeedGustMPH,Humidity,HourlyPrecipIn,Conditions,Clouds,dailyrainin,SoftwareType,DateUTC
2013-07-06 06:53:00,50.2,47.1,30.13,NE,45,0.0,0.0,89,0.00,,,0.00,Weather View 32 v70,2013-07-06 14:53:00,
2013-07-06 06:58:00,50.0,46.9,30.13,NNE,22,0.0,0.0,89,0.00,,,0.00,Weather View 32 v70,2013-07-06 14:58:00,
2013-07-06 07:03:00,50.5,47.7,30.13,SE,135,0.0,0.0,90,0.00,,,0.00,Weather View 32 v70,2013-07-06 15:03:00,
2013-07-06 07:08:00,50.9,48.1,30.12,NE,45,0.0,0.0,90,0.00,,,0.00,Weather View 32 v70,2013-07-06 15:08:00,
2013-07-06 07:13:00,52.7,49.5,30.12,NE,45,1.0,1.0,89,0.00,,,0.00,Weather View 32 v70,2013-07-06 15:13:00,
2013-07-06 07:18:00,52.9,49.1,30.12,NNE,22,1.0,1.0,87,0.00,,,0.00,Weather View 32 v70,2013-07-06 15:18:00,
2013-07-06 07:23:00,52.7,48.3,30.12,NE,45,1.0,1.0,85,0.00,,,0.00,Weather View 32 v70,2013-07-06 15:23:00,
2013-07-06 07:28:00,53.1,48.7,30.13,NNW,338,1.0,1.0,85,0.00,,,0.00,Weather View 32 v70,2013-07-06 15:28:00,
2013-07-06 07:33:00,52.9,48.5,30.13,NNE,22,0.0,1.0,85,0.00,,,0.00,Weather View 32 v70,2013-07-06 15:33:00,
2013-07-06 07:38:00,53.1,48.7,30.13,East,90,0.0,1.0,85,0.00,,,0.00,Weather View 32 v70,2013-07-06 15:38:00,
2013-07-06 07:43:00,53.2,48.8,30.13,NNE,22,0.0,1.0,85,0.00,,,0.00,Weather View 32 v70,2013-07-06 15:43:00,
2013-07-06 07:48:00,53.4,49.0,30.12,NNE,22,0.0,1.0,85,0.00,,,0.00,Weather View 32 v70,2013-07-06 15:48:00,
2013-07-06 07:53:00,53.4,48.7,30.12,NNE,22,0.0,1.0,84,0.00,,,0.00,Weather View 32 v70,2013-07-06 15:53:00,
2013-07-06 07:58:00,53.4,49.0,30.12,NNE,22,0.0,1.0,85,0.00,,,0.00,Weather View 32 v70,2013-07-06 15:58:00,
2013-07-06 08:03:00,53.4,48.7,30.12,NNE,22,0.0,1.0,84,0.00,,,0.00,Weather View 32 v70,2013-07-06 16:03:00,
2013-07-06 08:08:00,53.4,48.7,30.12,NNE,22,0.0,1.0,84,0.00,,,0.00,Weather View 32 v70,2013-07-06 16:08:00,
2013-07-06 08:13:00,53.6,48.9,30.12,NNE,22,0.0,1.0,84,0.00,,,0.00,Weather View 32 v70,2013-07-06 16:13:00,
2013-07-06 08:18:00,53.6,48.9,30.12,NNW,338,0.0,1.0,84,0.00,,,0.00,Weather View 32 v70,2013-07-06 16:18:00,
2013-07-06 08:23:00,53.8,49.0,30.12,WNW,292,0.0,1.0,84,0.00,,,0.00,Weather View 32 v70,2013-07-06 16:23:00,
2013-07-06 08:29:00,54.1,49.1,30.13,NW,315,0.0,1.0,83,0.00,,,0.00,Weather View 32 v70,2013-07-06 16:29:00,
2013-07-06 08:34:00,54.0,48.9,30.13,North,0,0.0,0.0,83,0.00,,,0.00,Weather View 32 v70,2013-07-06 16:34:00,
2013-07-06 08:39:00,54.1,49.1,30.13,NNE,22,0.0,0.0,83,0.00,,,0.00,Weather View 32 v70,2013-07-06 16:39:00,
2013-07-06 08:44:00,54.0,49.2,30.13,NNW,338,0.0,0.0,84,0.00,,,0.00,Weather View 32 v70,2013-07-06 16:44:00,
2013-07-06 08:49:00,54.1,49.1,30.12,NNE,22,1.0,1.0,83,0.00,,,0.00,Weather View 32 v70,2013-07-06 16:49:00,
2013-07-06 08:54:00,54.3,49.3,30.12,NNW,338,1.0,1.0,83,0.00,,,0.00,Weather View 32 v70,2013-07-06 16:54:00,
2013-07-06 08:59:00,54.7,49.3,30.12,NNE,22,0.0,1.0,82,0.00,,,0.00,Weather View 32 v70,2013-07-06 16:59:00,
2013-07-06 09:04:00,54.7,49.3,30.12,North,0,0.0,1.0,82,0.00,,,0.00,Weather View 32 v70,2013-07-06 17:04:00,
2013-07-06 09:10:00,54.9,49.1,30.12,NNW,338,0.0,1.0,81,0.00,,,0.00,Weather View 32 v70,2013-07-06 17:10:00,
2013-07-06 09:17:00,55.0,49.3,30.12,NNW,338,0.0,1.0,81,0.00,,,0.00,Weather View 32 v70,2013-07-06 17:17:00,
2013-07-06 09:23:00,55.6,49.5,30.12,NNE,22,0.0,1.0,80,0.00,,,0.00,Weather View 32 v70,2013-07-06 17:23:00,
2013-07-06 09:28:00,55.6,49.2,30.12,North,0,0.0,1.0,79,0.00,,,0.00,Weather View 32 v70,2013-07-06 17:28:00,
2013-07-06 09:33:00,55.6,49.2,30.12,NNW,338,1.0,1.0,79,0.00,,,0.00,Weather View 32 v70,2013-07-06 17:33:00,
2013-07-06 09:38:00,55.8,49.0,30.12,NNE,22,1.0,1.0,78,0.00,,,0.00,Weather View 32 v70,2013-07-06 17:38:00,
2013-07-06 09:43:00,56.3,49.9,30.12,NNE,22,0.0,1.0,79,0.00,,,0.00,Weather View 32 v70,2013-07-06 17:43:00,
2013-07-06 09:49:00,56.3,49.2,30.12,ESE,112,0.0,1.0,77,0.00,,,0.00,Weather View 32 v70,2013-07-06 17:49:00,
2013-07-06 09:54:00,56.3,49.2,30.12,ESE,112,0.0,1.0,77,0.00,,,0.00,Weather View 32 v70,2013-07-06 17:54:00,
2013-07-06 10:00:00,56.3,49.5,30.12,NE,45,0.0,1.0,78,0.00,,,0.00,Weather View 32 v70,2013-07-06 18:00:00,
2013-07-06 10:05:00,56.3,49.5,30.13,NNE,22,0.0,1.0,78,0.00,,,0.00,Weather View 32 v70,2013-07-06 18:05:00,
2013-07-06 10:10:00,56.5,49.7,30.13,North,0,0.0,1.0,78,0.00,,,0.00,Weather View 32 v70,2013-07-06 18:10:00,
2013-07-06 10:15:00,57.0,50.2,30.13,NNW,338,0.0,1.0,78,0.00,,,0.00,Weather View 32 v70,2013-07-06 18:15:00,
2013-07-06 10:21:00,57.4,50.6,30.13,NNE,22,0.0,1.0,78,0.00,,,0.00,Weather View 32 v70,2013-07-06 18:21:00,
2013-07-06 10:26:00,57.7,51.3,30.13,NNW,338,0.0,1.0,79,0.00,,,0.00,Weather View 32 v70,2013-07-06 18:26:00,
2013-07-06 10:31:00,57.6,50.7,30.13,West,270,0.0,1.0,78,0.00,,,0.00,Weather View 32 v70,2013-07-06 18:31:00,
2013-07-06 10:36:00,57.9,50.7,30.13,ENE,68,0.0,1.0,77,0.00,,,0.00,Weather View 32 v70,2013-07-06 18:36:00,
2013-07-06 10:41:00,57.9,50.4,30.13,South,180,0.0,1.0,76,0.00,,,0.00,Weather View 32 v70,2013-07-06 18:41:00,
2013-07-06 10:46:00,57.9,50.7,30.13,NW,315,0.0,0.0,77,0.00,,,0.00,Weather View 32 v70,2013-07-06 18:46:00,
2013-07-06 10:51:00,58.3,50.7,30.13,WNW,292,0.0,0.0,76,0.00,,,0.00,Weather View 32 v70,2013-07-06 18:51:00,
2013-07-06 10:56:00,58.5,50.9,30.13,NNW,338,0.0,0.0,76,0.00,,,0.00,Weather View 32 v70,2013-07-06 18:56:00,
2013-07-06 11:02:00,58.5,50.5,30.13,NNW,338,0.0,0.0,75,0.00,,,0.00,Weather View 32 v70,2013-07-06 19:02:00,
2013-07-06 11:07:00,58.3,50.4,30.13,SE,135,0.0,0.0,75,0.00,,,0.00,Weather View 32 v70,2013-07-06 19:07:00,
2013-07-06 11:12:00,58.5,50.2,30.13,ENE,68,0.0,0.0,74,0.00,,,0.00,Weather View 32 v70,2013-07-06 19:12:00,
2013-07-06 11:17:00,58.3,50.4,30.13,South,180,0.0,0.0,75,0.00,,,0.00,Weather View 32 v70,2013-07-06 19:17:00,
2013-07-06 11:22:00,58.5,50.2,30.13,ENE,68,0.0,0.0,74,0.00,,,0.00,Weather View 32 v70,2013-07-06 19:22:00,
2013-07-06 11:28:00,58.1,49.5,30.13,ENE,68,0.0,0.0,73,0.00,,,0.00,Weather View 32 v70,2013-07-06 19:28:00,
2013-07-06 11:33:00,57.9,49.3,30.13,SE,135,0.0,0.0,73,0.00,,,0.00,Weather View 32 v70,2013-07-06 19:33:00,
2013-07-06 11:38:00,58.1,49.5,30.13,NNW,338,0.0,0.0,73,0.00,,,0.00,Weather View 32 v70,2013-07-06 19:38:00,
2013-07-06 11:43:00,58.5,50.2,30.13,South,180,0.0,0.0,74,0.00,,,0.00,Weather View 32 v70,2013-07-06 19:43:00,
2013-07-06 11:48:00,58.5,50.2,30.13,WSW,248,0.0,0.0,74,0.00,,,0.00,Weather View 32 v70,2013-07-06 19:48:00,
2013-07-06 11:53:00,58.8,50.2,30.13,NW,315,0.0,0.0,73,0.00,,,0.00,Weather View 32 v70,2013-07-06 19:53:00,
2013-07-06 11:58:00,58.8,50.2,30.13,NNE,22,0.0,0.0,73,0.00,,,0.00,Weather View 32 v70,2013-07-06 19:58:00,
2013-07-06 12:03:00,59.2,50.1,30.13,WNW,292,0.0,0.0,72,0.00,,,0.00,Weather View 32 v70,2013-07-06 20:03:00,
2013-07-06 12:08:00,59.2,50.1,30.13,WNW,292,0.0,0.0,72,0.00,,,0.00,Weather View 32 v70,2013-07-06 20:08:00,
2013-07-06 12:13:00,59.2,50.1,30.13,WNW,292,0.0,0.0,72,0.00,,,0.00,Weather View 32 v70,2013-07-06 20:13:00,
2013-07-06 12:18:00,59.5,50.1,30.13,SSE,158,0.0,0.0,71,0.00,,,0.00,Weather View 32 v70,2013-07-06 20:18:00,
2013-07-06 12:23:00,59.9,50.1,30.13,NE,45,0.0,0.0,70,0.00,,,0.00,Weather View 32 v70,2013-07-06 20:23:00,
2013-07-06 12:28:00,60.3,50.0,30.13,ENE,68,1.0,1.0,69,0.00,,,0.00,Weather View 32 v70,2013-07-06 20:28:00,
2013-07-06 12:33:00,60.6,50.4,30.13,SE,135,0.0,1.0,69,0.00,,,0.00,Weather View 32 v70,2013-07-06 20:33:00,
2013-07-06 12:39:00,61.0,49.9,30.13,NNE,22,0.0,1.0,67,0.00,,,0.00,Weather View 32 v70,2013-07-06 20:39:00,
2013-07-06 12:44:00,61.3,50.7,30.13,South,180,0.0,1.0,68,0.00,,,0.00,Weather View 32 v70,2013-07-06 20:44:00,
2013-07-06 12:49:00,61.3,49.4,30.12,ENE,68,1.0,1.0,65,0.00,,,0.00,Weather View 32 v70,2013-07-06 20:49:00,
2013-07-06 12:54:00,61.0,49.5,30.12,NE,45,1.0,1.0,66,0.00,,,0.00,Weather View 32 v70,2013-07-06 20:54:00,
2013-07-06 12:59:00,60.8,49.3,30.12,North,0,1.0,1.0,66,0.00,,,0.00,Weather View 32 v70,2013-07-06 20:59:00,
2013-07-06 13:04:00,60.8,49.7,30.12,SE,135,1.0,1.0,67,0.00,,,0.00,Weather View 32 v70,2013-07-06 21:04:00,
2013-07-06 13:09:00,60.8,49.7,30.13,NNE,22,1.0,1.0,67,0.00,,,0.00,Weather View 32 v70,2013-07-06 21:09:00,
2013-07-06 13:14:00,61.3,49.9,30.13,WNW,292,1.0,1.0,66,0.00,,,0.00,Weather View 32 v70,2013-07-06 21:14:00,
2013-07-06 13:19:00,61.3,50.7,30.13,South,180,1.0,1.0,68,0.00,,,0.00,Weather View 32 v70,2013-07-06 21:19:00,
2013-07-06 13:24:00,61.7,50.2,30.12,NW,315,0.0,1.0,66,0.00,,,0.00,Weather View 32 v70,2013-07-06 21:24:00,
2013-07-06 13:29:00,62.1,50.5,30.12,NE,45,0.0,1.0,66,0.00,,,0.00,Weather View 32 v70,2013-07-06 21:29:00,
2013-07-06 13:35:00,62.2,50.3,30.12,NNW,338,0.0,1.0,65,0.00,,,0.00,Weather View 32 v70,2013-07-06 21:35:00,
2013-07-06 13:40:00,62.8,51.2,30.12,West,270,0.0,1.0,66,0.00,,,0.00,Weather View 32 v70,2013-07-06 21:40:00,
2013-07-06 13:45:00,63.0,50.1,30.12,West,270,1.0,1.0,63,0.00,,,0.00,Weather View 32 v70,2013-07-06 21:45:00,
2013-07-06 13:50:00,63.5,51.1,30.12,West,270,1.0,1.0,64,0.00,,,0.00,Weather View 32 v70,2013-07-06 21:50:00,
2013-07-06 13:55:00,63.5,50.6,30.12,NW,315,1.0,1.0,63,0.00,,,0.00,Weather View 32 v70,2013-07-06 21:55:00,
2013-07-06 14:00:00,63.5,51.1,30.12,ENE,68,1.0,1.0,64,0.00,,,0.00,Weather View 32 v70,2013-07-06 22:00:00,
2013-07-06 14:05:00,63.5,50.2,30.12,NNE,22,1.0,1.0,62,0.00,,,0.00,Weather View 32 v70,2013-07-06 22:05:00,
2013-07-06 14:11:00,63.9,49.7,30.12,SE,135,1.0,1.0,60,0.00,,,0.00,Weather View 32 v70,2013-07-06 22:11:00,
2013-07-06 14:16:00,63.7,49.9,30.12,SW,225,1.0,1.0,61,0.00,,,0.00,Weather View 32 v70,2013-07-06 22:16:00,
2013-07-06 14:21:00,63.7,49.5,30.12,NNE,22,2.0,2.0,60,0.00,,,0.00,Weather View 32 v70,2013-07-06 22:21:00,
2013-07-06 14:26:00,64.0,48.9,30.11,SE,135,2.0,2.0,58,0.00,,,0.00,Weather View 32 v70,2013-07-06 22:26:00,
2013-07-06 14:31:00,65.7,50.0,30.11,ENE,68,2.0,2.0,57,0.00,,,0.00,Weather View 32 v70,2013-07-06 22:31:00,
2013-07-06 14:36:00,66.7,50.5,30.11,ESE,112,2.0,2.0,56,0.00,,,0.00,Weather View 32 v70,2013-07-06 22:36:00,
2013-07-06 14:41:00,66.2,50.0,30.11,SE,135,3.0,3.0,56,0.00,,,0.00,Weather View 32 v70,2013-07-06 22:41:00,
2013-07-06 14:46:00,66.0,48.9,30.11,ENE,68,3.0,3.0,54,0.00,,,0.00,Weather View 32 v70,2013-07-06 22:46:00,
2013-07-06 14:51:00,65.7,49.0,30.11,ESE,112,3.0,3.0,55,0.00,,,0.00,Weather View 32 v70,2013-07-06 22:51:00,
2013-07-06 14:56:00,65.7,48.5,30.11,SSE,158,2.0,3.0,54,0.00,,,0.00,Weather View 32 v70,2013-07-06 22:56:00,
2013-07-06 15:01:00,65.8,49.2,30.11,NNE,22,2.0,3.0,55,0.00,,,0.00,Weather View 32 v70,2013-07-06 23:01:00,
2013-07-06 15:06:00,65.7,49.0,30.10,ESE,112,2.0,3.0,55,0.00,,,0.00,Weather View 32 v70,2013-07-06 23:06:00,
2013-07-06 15:11:00,65.3,49.2,30.10,SSE,158,2.0,3.0,56,0.00,,,0.00,Weather View 32 v70,2013-07-06 23:11:00,
2013-07-06 15:16:00,65.1,48.5,30.10,NE,45,2.0,3.0,55,0.00,,,0.00,Weather View 32 v70,2013-07-06 23:16:00,
2013-07-06 15:22:00,64.9,48.8,30.10,East,90,2.0,3.0,56,0.00,,,0.00,Weather View 32 v70,2013-07-06 23:22:00,
2013-07-06 15:27:00,64.8,48.7,30.10,West,270,3.0,3.0,56,0.00,,,0.00,Weather View 32 v70,2013-07-06 23:27:00,
2013-07-06 15:32:00,64.8,49.1,30.10,East,90,2.0,3.0,57,0.00,,,0.00,Weather View 32 v70,2013-07-06 23:32:00,
2013-07-06 15:37:00,64.4,48.8,30.10,ESE,112,2.0,3.0,57,0.00,,,0.00,Weather View 32 v70,2013-07-06 23:37:00,
2013-07-06 15:42:00,64.2,48.6,30.10,SE,135,2.0,3.0,57,0.00,,,0.00,Weather View 32 v70,2013-07-06 23:42:00,
2013-07-06 15:47:00,64.2,48.6,30.10,NNE,22,2.0,3.0,57,0.00,,,0.00,Weather View 32 v70,2013-07-06 23:47:00,
2013-07-06 15:52:00,64.0,48.5,30.10,NW,315,2.0,3.0,57,0.00,,,0.00,Weather View 32 v70,2013-07-06 23:52:00,
2013-07-06 15:57:00,63.9,48.8,30.10,SW,225,2.0,3.0,58,0.00,,,0.00,Weather View 32 v70,2013-07-06 23:57:00,
2013-07-06 16:02:00,63.5,48.4,30.10,NNE,22,2.0,3.0,58,0.00,,,0.00,Weather View 32 v70,2013-07-07 00:02:00,
2013-07-06 16:07:00,63.1,47.6,30.09,NNE,22,2.0,3.0,57,0.00,,,0.00,Weather View 32 v70,2013-07-07 00:07:00,
2013-07-06 16:12:00,63.0,47.9,30.09,SE,135,3.0,3.0,58,0.00,,,0.00,Weather View 32 v70,2013-07-07 00:12:00,
2013-07-06 16:18:00,63.0,47.9,30.09,NE,45,3.0,3.0,58,0.00,,,0.00,Weather View 32 v70,2013-07-07 00:18:00,
2013-07-06 16:23:00,63.0,47.9,30.09,NE,45,3.0,3.0,58,0.00,,,0.00,Weather View 32 v70,2013-07-07 00:23:00,
2013-07-06 16:28:00,62.8,47.3,30.08,North,0,3.0,3.0,57,0.00,,,0.00,Weather View 32 v70,2013-07-07 00:28:00,
2013-07-06 16:33:00,62.4,47.4,30.08,WNW,292,3.0,3.0,58,0.00,,,0.00,Weather View 32 v70,2013-07-07 00:33:00,
2013-07-06 16:38:00,61.9,47.4,30.08,ENE,68,3.0,3.0,59,0.00,,,0.00,Weather View 32 v70,2013-07-07 00:38:00,
2013-07-06 16:43:00,61.7,47.6,30.08,ESE,112,3.0,3.0,60,0.00,,,0.00,Weather View 32 v70,2013-07-07 00:43:00,
2013-07-06 16:49:00,61.7,47.2,30.08,NE,45,3.0,3.0,59,0.00,,,0.00,Weather View 32 v70,2013-07-07 00:49:00,
2013-07-06 16:54:00,61.2,47.1,30.08,ESE,112,4.0,4.0,60,0.00,,,0.00,Weather View 32 v70,2013-07-07 00:54:00,
2013-07-06 16:59:00,61.0,47.0,30.08,ENE,68,4.0,4.0,60,0.00,,,0.00,Weather View 32 v70,2013-07-07 00:59:00,
2013-07-06 17:04:00,61.0,47.0,30.08,NE,45,4.0,4.0,60,0.00,,,0.00,Weather View 32 v70,2013-07-07 01:04:00,
2013-07-06 17:09:00,61.3,47.3,30.07,NNE,22,4.0,4.0,60,0.00,,,0.00,Weather View 32 v70,2013-07-07 01:09:00,
2013-07-06 17:15:00,61.9,47.8,30.07,ESE,112,4.0,4.0,60,0.00,,,0.00,Weather View 32 v70,2013-07-07 01:15:00,
2013-07-06 17:20:00,62.2,47.7,30.07,NE,45,4.0,4.0,59,0.00,,,0.00,Weather View 32 v70,2013-07-07 01:20:00,
2013-07-06 17:25:00,61.9,46.9,30.06,SSE,158,5.0,5.0,58,0.00,,,0.00,Weather View 32 v70,2013-07-07 01:25:00,
2013-07-06 17:30:00,61.7,46.7,30.06,NE,45,5.0,5.0,58,0.00,,,0.00,Weather View 32 v70,2013-07-07 01:30:00,
2013-07-06 17:35:00,61.7,47.6,30.06,ENE,68,4.0,5.0,60,0.00,,,0.00,Weather View 32 v70,2013-07-07 01:35:00,
2013-07-06 17:40:00,62.1,47.5,30.06,WSW,248,4.0,5.0,59,0.00,,,0.00,Weather View 32 v70,2013-07-07 01:40:00,
2013-07-06 17:45:00,62.1,47.5,30.06,NE,45,4.0,5.0,59,0.00,,,0.00,Weather View 32 v70,2013-07-07 01:45:00,
2013-07-06 17:51:00,61.7,47.6,30.06,NNE,22,3.0,5.0,60,0.00,,,0.00,Weather View 32 v70,2013-07-07 01:51:00,
2013-07-06 17:56:00,61.7,47.6,30.06,SE,135,3.0,5.0,60,0.00,,,0.00,Weather View 32 v70,2013-07-07 01:56:00,
2013-07-06 18:01:00,61.3,47.3,30.06,South,180,4.0,5.0,60,0.00,,,0.00,Weather View 32 v70,2013-07-07 02:01:00,
2013-07-06 18:06:00,61.2,47.1,30.04,NNW,338,3.0,5.0,60,0.00,,,0.00,Weather View 32 v70,2013-07-07 02:06:00,
2013-07-06 18:11:00,61.3,47.7,30.04,ENE,68,3.0,5.0,61,0.00,,,0.00,Weather View 32 v70,2013-07-07 02:11:00,
2013-07-06 18:16:00,61.3,47.7,30.04,ESE,112,2.0,5.0,61,0.00,,,0.00,Weather View 32 v70,2013-07-07 02:16:00,
2013-07-06 18:21:00,61.5,47.5,30.04,ENE,68,2.0,5.0,60,0.00,,,0.00,Weather View 32 v70,2013-07-07 02:21:00,
2013-07-06 18:26:00,61.2,46.7,30.04,NW,315,3.0,5.0,59,0.00,,,0.00,Weather View 32 v70,2013-07-07 02:26:00,
2013-07-06 18:31:00,61.3,47.3,30.04,SE,135,3.0,5.0,60,0.00,,,0.00,Weather View 32 v70,2013-07-07 02:31:00,
2013-07-06 18:37:00,61.2,46.7,30.04,SW,225,3.0,4.0,59,0.00,,,0.00,Weather View 32 v70,2013-07-07 02:37:00,
2013-07-06 18:42:00,61.3,46.9,30.04,ESE,112,4.0,4.0,59,0.00,,,0.00,Weather View 32 v70,2013-07-07 02:42:00,
2013-07-06 18:47:00,61.2,47.1,30.03,ESE,112,4.0,4.0,60,0.00,,,0.00,Weather View 32 v70,2013-07-07 02:47:00,
2013-07-06 18:52:00,61.0,47.0,30.03,ENE,68,3.0,4.0,60,0.00,,,0.00,Weather View 32 v70,2013-07-07 02:52:00,
2013-07-06 18:57:00,60.8,46.8,30.03,SE,135,4.0,4.0,60,0.00,,,0.00,Weather View 32 v70,2013-07-07 02:57:00,
2013-07-06 19:02:00,61.0,47.4,30.03,East,90,3.0,4.0,61,0.00,,,0.00,Weather View 32 v70,2013-07-07 03:02:00,
2013-07-06 19:07:00,61.0,47.4,30.02,ENE,68,3.0,4.0,61,0.00,,,0.00,Weather View 32 v70,2013-07-07 03:07:00,
2013-07-06 19:12:00,61.3,47.7,30.02,NW,315,3.0,4.0,61,0.00,,,0.00,Weather View 32 v70,2013-07-07 03:12:00,
2013-07-06 19:17:00,61.3,47.3,30.02,NW,315,3.0,4.0,60,0.00,,,0.00,Weather View 32 v70,2013-07-07 03:17:00,
2013-07-06 19:22:00,61.3,47.3,30.02,SE,135,3.0,4.0,60,0.00,,,0.00,Weather View 32 v70,2013-07-07 03:22:00,
2013-07-06 19:27:00,61.3,46.9,30.01,SE,135,4.0,4.0,59,0.00,,,0.00,Weather View 32 v70,2013-07-07 03:27:00,
2013-07-06 19:32:00,61.2,46.7,30.01,ENE,68,4.0,4.0,59,0.00,,,0.00,Weather View 32 v70,2013-07-07 03:32:00,
2013-07-06 19:37:00,61.0,46.5,30.01,SE,135,4.0,5.0,59,0.00,,,0.00,Weather View 32 v70,2013-07-07 03:37:00,
2013-07-06 19:42:00,60.6,46.6,30.01,ENE,68,4.0,5.0,60,0.00,,,0.00,Weather View 32 v70,2013-07-07 03:42:00,
2013-07-06 19:48:00,60.6,47.1,30.00,ENE,68,3.0,5.0,61,0.00,,,0.00,Weather View 32 v70,2013-07-07 03:48:00,
2013-07-06 19:53:00,60.8,47.2,30.00,ENE,68,3.0,5.0,61,0.00,,,0.00,Weather View 32 v70,2013-07-07 03:53:00,
2013-07-06 19:58:00,61.0,47.0,30.00,SE,135,3.0,5.0,60,0.00,,,0.00,Weather View 32 v70,2013-07-07 03:58:00,
2013-07-06 20:01:00,60.8,47.2,30.00,NE,45,3.0,5.0,61,0.00,,,0.00,Weather View 32 v70,2013-07-07 04:01:00,
2013-07-06 20:06:00,60.8,47.2,29.99,ESE,112,3.0,5.0,61,0.00,,,0.00,Weather View 32 v70,2013-07-07 04:06:00,
2013-07-06 20:11:00,60.6,46.6,29.99,South,180,3.0,5.0,60,0.00,,,0.00,Weather View 32 v70,2013-07-07 04:11:00,
2013-07-06 20:16:00,60.6,47.1,29.99,East,90,3.0,5.0,61,0.00,,,0.00,Weather View 32 v70,2013-07-07 04:16:00,
2013-07-06 20:21:00,60.4,46.9,29.99,NE,45,3.0,5.0,61,0.00,,,0.00,Weather View 32 v70,2013-07-07 04:21:00,
2013-07-06 20:26:00,60.6,46.6,29.99,East,90,4.0,5.0,60,0.00,,,0.00,Weather View 32 v70,2013-07-07 04:26:00,
2013-07-06 20:31:00,60.1,46.1,29.99,NE,45,4.0,5.0,60,0.00,,,0.00,Weather View 32 v70,2013-07-07 04:31:00,
2013-07-06 20:36:00,60.1,46.6,29.99,NNE,22,4.0,4.0,61,0.00,,,0.00,Weather View 32 v70,2013-07-07 04:36:00,
2013-07-06 20:41:00,60.1,46.1,29.99,ENE,68,4.0,4.0,60,0.00,,,0.00,Weather View 32 v70,2013-07-07 04:41:00,
2013-07-06 20:46:00,59.9,45.9,29.99,East,90,4.0,4.0,60,0.00,,,0.00,Weather View 32 v70,2013-07-07 04:46:00,
2013-07-06 20:51:00,59.9,46.4,29.99,NNW,338,3.0,4.0,61,0.00,,,0.00,Weather View 32 v70,2013-07-07 04:51:00,
2013-07-06 20:56:00,59.7,46.2,29.99,NE,45,3.0,4.0,61,0.00,,,0.00,Weather View 32 v70,2013-07-07 04:56:00,
2013-07-06 21:01:00,59.5,46.0,29.99,NE,45,3.0,4.0,61,0.00,,,0.00,Weather View 32 v70,2013-07-07 05:01:00,
2013-07-06 21:06:00,59.5,46.0,29.98,NNE,22,3.0,4.0,61,0.00,,,0.00,Weather View 32 v70,2013-07-07 05:06:00,
2013-07-06 21:11:00,59.5,46.5,29.98,ENE,68,3.0,4.0,62,0.00,,,0.00,Weather View 32 v70,2013-07-07 05:11:00,
2013-07-06 21:16:00,59.5,46.5,29.98,East,90,3.0,4.0,62,0.00,,,0.00,Weather View 32 v70,2013-07-07 05:16:00,
2013-07-06 21:21:00,59.5,46.0,29.98,ENE,68,4.0,4.0,61,0.00,,,0.00,Weather View 32 v70,2013-07-07 05:21:00,
2013-07-06 21:26:00,59.4,46.3,29.97,WSW,248,4.0,4.0,62,0.00,,,0.00,Weather View 32 v70,2013-07-07 05:26:00,
2013-07-06 21:31:00,59.2,46.1,29.97,SE,135,4.0,4.0,62,0.00,,,0.00,Weather View 32 v70,2013-07-07 05:31:00,
2013-07-06 21:36:00,59.0,46.0,29.97,SE,135,4.0,4.0,62,0.00,,,0.00,Weather View 32 v70,2013-07-07 05:36:00,
2013-07-06 21:41:00,58.8,45.8,29.97,ESE,112,4.0,4.0,62,0.00,,,0.00,Weather View 32 v70,2013-07-07 05:41:00,
2013-07-06 21:46:00,58.6,45.6,29.97,NNE,22,4.0,4.0,62,0.00,,,0.00,Weather View 32 v70,2013-07-07 05:46:00,
2013-07-06 21:51:00,58.6,45.6,29.97,ENE,68,5.0,5.0,62,0.00,,,0.00,Weather View 32 v70,2013-07-07 05:51:00,
2013-07-06 21:56:00,58.6,45.6,29.97,NNW,338,4.0,5.0,62,0.00,,,0.00,Weather View 32 v70,2013-07-07 05:56:00,
2013-07-06 22:01:00,58.5,45.5,29.97,NE,45,4.0,5.0,62,0.00,,,0.00,Weather View 32 v70,2013-07-07 06:01:00,
2013-07-06 22:06:00,58.5,45.5,29.96,ENE,68,4.0,5.0,62,0.00,,,0.00,Weather View 32 v70,2013-07-07 06:06:00,
2013-07-06 22:11:00,58.5,45.9,29.96,SE,135,4.0,5.0,63,0.00,,,0.00,Weather View 32 v70,2013-07-07 06:11:00,
2013-07-06 22:15:00,58.5,45.9,29.96,ESE,112,4.0,5.0,63,0.00,,,0.00,Weather View 32 v70,2013-07-07 06:15:00,
2013-07-06 22:16:00,58.5,45.9,29.96,ESE,112,4.0,5.0,63,0.00,,,0.00,Weather View 32 v70,2013-07-07 06:16:00,